Cuiabá, Brasil

03:55 AM AMST em 26 de Outubro de 2014 (GMT -0300)
Marechal Rondon International | Change Station
CLOSE
Current Station
Aeroporto
Location: Cuiaba Marechal Ron,
Altitude: 617 ft
Estações Meteorológicas Próximas

Elev 617 ft 15.65 °S, 56.12 °W | Updated 55 minutes ago

Mostly Cloudy
Muito Nublado
77 °F
Aparente 77 °F
N
5
Vento Variável Vento de Norte

Hoje
Máxima -- | Mínima -- °F
--% Possibilidade de Precip.
Ontem
Máxima -- | Mínima -- °F
Precip. -- pol
6:10 AM 6:46 PM
Quarto crescente, 6% visible
Pressão 29.80 pol
Visibilidade 6.2 milhas
Nuvens Poucas 2000 ft
Muito Nublado 10000 ft
Ponto de Orvalho 72 °F
Humidade 83%
Chuva 0.00 pol
Altura de Neve Não disponível
UV 0 em vez de 12
Pólen Não disponível
Qualidade do Ar Não disponível
Flu Activity Não disponível
METAR SBCY 260600Z 01004KT 9999 FEW020 BKN100 25/22 Q1009

More Conditions Fewer Conditions

Pressão 29.80 pol
Visibilidade 6.2 milhas
Nuvens Poucas 2000 ft
Muito Nublado 10000 ft
Ponto de Orvalho 72 °F
Humidade 83%
Chuva 0.00 pol
Altura de Neve Não disponível
UV 0 em vez de 12
Pólen Não disponível
Qualidade do Ar Não disponível
Flu Activity Não disponível
METAR SBCY 260600Z 01004KT 9999 FEW020 BKN100 25/22 Q1009

More Conditions Fewer Conditions

10-Day Weather Forecast

Almanac

Astronomia

Oct. 26, 2014 Nascer Pôr
Hora atual 06:10 AMST 18:46 AMST
Crepúsculo civil 05:48 AMST 19:08 AMST
Crepúsculo náutico 05:22 AMST 19:34 AMST
Crepúsculo astronómico 04:56 AMST 20:00 AMST
Lua 08:15 AMST 21:23 AMST
Comprimento da luz visível 13h 19m
Duração do Dia
12h 35m
Tomorrow will be 0m 48s longer.
Quarto crescente, 6% of the Moon is Illuminated
Hoje
Quarto crescente
Out 30
Quarto crescente
Nov 6
Lua cheia
Nov 14
Quarto minguante
Nov 22
Nova

Extremos de ontem

Altitude na localidade Altura mais baixa na localidade

Community

WunderPhotos

Upload Photos

1,765,117 fotografias inseridas!

Nearby

Actividade Sísmisca

Cidade Distância Mag. Hora & Data
Não há notícias de atividade sísmica recente perto de si.
Mínima magnitude apresentada é 2.5.

Temperaturas das Águas Costeiras

Local Temperatura
Não há estações a reportar dados

Estações Meteorológicas Próximas